sensor_id;sensor_type;location;lat;lon;timestamp;pressure;altitude;pressure_sealevel;temperature;humidity
9474;BME280;8865;47.636;7.692;2023-04-10T00:01:19;98731.06;;;5.67;100.00
9474;BME280;8865;47.636;7.692;2023-04-10T00:03:45;98740.38;;;5.55;100.00
9474;BME280;8865;47.636;7.692;2023-04-10T00:06:12;98740.38;;;5.55;100.00
9474;BME280;8865;47.636;7.692;2023-04-10T00:08:50;98731.84;;;5.53;100.00
9474;BME280;8865;47.636;7.692;2023-04-10T00:11:16;98742.06;;;5.56;100.00
9474;BME280;8865;47.636;7.692;2023-04-10T00:13:42;98731.78;;;5.54;100.00
9474;BME280;8865;47.636;7.692;2023-04-10T00:16:08;98736.00;;;5.55;100.00
9474;BME280;8865;47.636;7.692;2023-04-10T00:18:34;98739.56;;;5.54;100.00
9474;BME280;8865;47.636;7.692;2023-04-10T00:21:02;98733.59;;;5.52;100.00
9474;BME280;8865;47.636;7.692;2023-04-10T00:23:28;98734.63;;;5.50;100.00
9474;BME280;8865;47.636;7.692;2023-04-10T00:25:56;98731.34;;;5.46;100.00
9474;BME280;8865;47.636;7.692;2023-04-10T00:28:22;98723.66;;;5.45;100.00
9474;BME280;8865;47.636;7.692;2023-04-10T00:30:48;98729.19;;;5.39;100.00
9474;BME280;8865;47.636;7.692;2023-04-10T00:33:14;98735.34;;;5.38;100.00
9474;BME280;8865;47.636;7.692;2023-04-10T00:35:40;98731.06;;;5.36;100.00
9474;BME280;8865;47.636;7.692;2023-04-10T00:38:06;98729.47;;;5.34;100.00
9474;BME280;8865;47.636;7.692;2023-04-10T00:40:32;98724.34;;;5.32;100.00
9474;BME280;8865;47.636;7.692;2023-04-10T00:42:59;98728.81;;;5.30;100.00
9474;BME280;8865;47.636;7.692;2023-04-10T00:45:25;98728.06;;;5.28;100.00
9474;BME280;8865;47.636;7.692;2023-04-10T00:47:52;98721.53;;;5.21;100.00
9474;BME280;8865;47.636;7.692;2023-04-10T00:50:20;98731.31;;;5.16;100.00
9474;BME280;8865;47.636;7.692;2023-04-10T00:52:47;98728.06;;;5.12;100.00
9474;BME280;8865;47.636;7.692;2023-04-10T00:55:13;98721.38;;;5.08;100.00
9474;BME280;8865;47.636;7.692;2023-04-10T00:57:43;98727.50;;;5.07;100.00
9474;BME280;8865;47.636;7.692;2023-04-10T01:00:11;98728.34;;;5.08;100.00
9474;BME280;8865;47.636;7.692;2023-04-10T01:02:37;98725.81;;;5.06;100.00
9474;BME280;8865;47.636;7.692;2023-04-10T01:05:03;98722.50;;;5.04;100.00
9474;BME280;8865;47.636;7.692;2023-04-10T01:07:42;98723.75;;;4.97;100.00
9474;BME280;8865;47.636;7.692;2023-04-10T01:15:36;98718.91;;;4.91;100.00
9474;BME280;8865;47.636;7.692;2023-04-10T01:18:03;98717.22;;;4.90;100.00
9474;BME280;8865;47.636;7.692;2023-04-10T01:20:35;98728.78;;;4.84;100.00
9474;BME280;8865;47.636;7.692;2023-04-10T01:25:55;98735.22;;;4.77;100.00
9474;BME280;8865;47.636;7.692;2023-04-10T01:31:10;98739.50;;;4.78;100.00
9474;BME280;8865;47.636;7.692;2023-04-10T01:33:42;98748.88;;;4.80;100.00
9474;BME280;8865;47.636;7.692;2023-04-10T01:36:12;98748.19;;;4.77;100.00
9474;BME280;8865;47.636;7.692;2023-04-10T01:38:43;98740.59;;;4.74;100.00
9474;BME280;8865;47.636;7.692;2023-04-10T01:41:11;98742.44;;;4.72;100.00
9474;BME280;8865;47.636;7.692;2023-04-10T01:43:39;98747.63;;;4.72;100.00
9474;BME280;8865;47.636;7.692;2023-04-10T01:46:07;98737.25;;;4.72;100.00
9474;BME280;8865;47.636;7.692;2023-04-10T01:48:36;98746.84;;;4.70;100.00
9474;BME280;8865;47.636;7.692;2023-04-10T01:51:03;98734.81;;;4.69;100.00
9474;BME280;8865;47.636;7.692;2023-04-10T01:53:32;98740.00;;;4.69;100.00
9474;BME280;8865;47.636;7.692;2023-04-10T01:55:59;98736.72;;;4.65;100.00
9474;BME280;8865;47.636;7.692;2023-04-10T01:58:25;98734.28;;;4.62;100.00
9474;BME280;8865;47.636;7.692;2023-04-10T02:00:52;98733.38;;;4.63;100.00
9474;BME280;8865;47.636;7.692;2023-04-10T02:03:18;98731.94;;;4.57;100.00
9474;BME280;8865;47.636;7.692;2023-04-10T02:09:03;98741.59;;;4.55;100.00
9474;BME280;8865;47.636;7.692;2023-04-10T02:11:40;98740.66;;;4.56;100.00
9474;BME280;8865;47.636;7.692;2023-04-10T02:14:10;98743.25;;;4.56;100.00
9474;BME280;8865;47.636;7.692;2023-04-10T02:16:41;98728.03;;;4.50;100.00
9474;BME280;8865;47.636;7.692;2023-04-10T02:19:09;98734.13;;;4.49;100.00
9474;BME280;8865;47.636;7.692;2023-04-10T02:21:37;98735.19;;;4.45;100.00
9474;BME280;8865;47.636;7.692;2023-04-10T02:24:05;98732.50;;;4.31;100.00
9474;BME280;8865;47.636;7.692;2023-04-10T02:26:43;98738.44;;;4.33;100.00
9474;BME280;8865;47.636;7.692;2023-04-10T02:29:10;98738.44;;;4.33;100.00
9474;BME280;8865;47.636;7.692;2023-04-10T02:31:36;98733.41;;;4.29;100.00
9474;BME280;8865;47.636;7.692;2023-04-10T02:34:02;98731.59;;;4.32;100.00
9474;BME280;8865;47.636;7.692;2023-04-10T02:36:28;98733.25;;;4.33;100.00
9474;BME280;8865;47.636;7.692;2023-04-10T02:38:54;98737.94;;;4.26;100.00
9474;BME280;8865;47.636;7.692;2023-04-10T02:41:20;98733.75;;;4.23;100.00
9474;BME280;8865;47.636;7.692;2023-04-10T02:43:47;98733.75;;;4.23;100.00
9474;BME280;8865;47.636;7.692;2023-04-10T02:46:12;98737.28;;;4.22;100.00
9474;BME280;8865;47.636;7.692;2023-04-10T02:48:40;98743.13;;;4.26;100.00
9474;BME280;8865;47.636;7.692;2023-04-10T02:51:06;98736.19;;;4.26;100.00
9474;BME280;8865;47.636;7.692;2023-04-10T02:53:33;98739.63;;;4.27;100.00
9474;BME280;8865;47.636;7.692;2023-04-10T02:55:59;98746.72;;;4.23;100.00
9474;BME280;8865;47.636;7.692;2023-04-10T02:58:27;98741.28;;;4.28;100.00
9474;BME280;8865;47.636;7.692;2023-04-10T03:00:55;98737.03;;;4.27;100.00
9474;BME280;8865;47.636;7.692;2023-04-10T03:03:23;98734.81;;;4.19;100.00
9474;BME280;8865;47.636;7.692;2023-04-10T03:05:49;98735.06;;;4.15;100.00
9474;BME280;8865;47.636;7.692;2023-04-10T03:08:16;98725.53;;;4.15;100.00
9474;BME280;8865;47.636;7.692;2023-04-10T03:10:46;98718.09;;;4.09;100.00
9474;BME280;8865;47.636;7.692;2023-04-10T03:13:14;98707.63;;;4.10;100.00
9474;BME280;8865;47.636;7.692;2023-04-10T03:15:40;98710.06;;;4.14;100.00
9474;BME280;8865;47.636;7.692;2023-04-10T03:18:07;98704.81;;;4.15;100.00
9474;BME280;8865;47.636;7.692;2023-04-10T03:20:36;98693.75;;;4.11;100.00
9474;BME280;8865;47.636;7.692;2023-04-10T03:23:04;98694.75;;;4.09;100.00
9474;BME280;8865;47.636;7.692;2023-04-10T03:25:33;98684.72;;;4.03;100.00
9474;BME280;8865;47.636;7.692;2023-04-10T03:27:58;98688.72;;;4.08;100.00
9474;BME280;8865;47.636;7.692;2023-04-10T03:30:25;98679.03;;;4.12;100.00
9474;BME280;8865;47.636;7.692;2023-04-10T03:32:51;98687.56;;;4.14;100.00
9474;BME280;8865;47.636;7.692;2023-04-10T03:35:17;98694.34;;;4.17;100.00
9474;BME280;8865;47.636;7.692;2023-04-10T03:37:43;98688.31;;;4.16;100.00
9474;BME280;8865;47.636;7.692;2023-04-10T03:40:09;98679.03;;;4.12;100.00
9474;BME280;8865;47.636;7.692;2023-04-10T03:42:36;98680.94;;;4.08;100.00
9474;BME280;8865;47.636;7.692;2023-04-10T03:45:02;98680.59;;;3.99;100.00
9474;BME280;8865;47.636;7.692;2023-04-10T03:47:30;98681.34;;;4.01;100.00
9474;BME280;8865;47.636;7.692;2023-04-10T03:49:56;98688.13;;;4.03;100.00
9474;BME280;8865;47.636;7.692;2023-04-10T03:52:24;98694.13;;;4.04;100.00
9474;BME280;8865;47.636;7.692;2023-04-10T03:54:51;98687.22;;;4.04;100.00
9474;BME280;8865;47.636;7.692;2023-04-10T03:57:17;98686.38;;;4.04;100.00
9474;BME280;8865;47.636;7.692;2023-04-10T03:59:44;98692.50;;;4.03;100.00
9474;BME280;8865;47.636;7.692;2023-04-10T04:02:10;98688.53;;;3.96;100.00
9474;BME280;8865;47.636;7.692;2023-04-10T04:04:36;98685.66;;;3.84;100.00
9474;BME280;8865;47.636;7.692;2023-04-10T04:07:02;98686.03;;;3.94;100.00
9474;BME280;8865;47.636;7.692;2023-04-10T04:09:28;98687.69;;;3.95;100.00
9474;BME280;8865;47.636;7.692;2023-04-10T04:11:54;98696.16;;;3.99;100.00
9474;BME280;8865;47.636;7.692;2023-04-10T04:14:22;98692.72;;;3.98;100.00
9474;BME280;8865;47.636;7.692;2023-04-10T04:16:48;98691.88;;;3.98;100.00
9474;BME280;8865;47.636;7.692;2023-04-10T04:19:14;98692.19;;;3.91;100.00
9474;BME280;8865;47.636;7.692;2023-04-10T04:21:40;98691.34;;;3.91;100.00
9474;BME280;8865;47.636;7.692;2023-04-10T04:24:06;98702.47;;;3.93;100.00
9474;BME280;8865;47.636;7.692;2023-04-10T04:26:32;98703.16;;;3.97;100.00
9474;BME280;8865;47.636;7.692;2023-04-10T04:28:59;98703.91;;;3.99;100.00
9474;BME280;8865;47.636;7.692;2023-04-10T04:31:25;98697.75;;;4.01;100.00
9474;BME280;8865;47.636;7.692;2023-04-10T04:34:00;98691.94;;;3.96;100.00
9474;BME280;8865;47.636;7.692;2023-04-10T04:36:26;98700.59;;;3.97;100.00
9474;BME280;8865;47.636;7.692;2023-04-10T04:38:53;98694.78;;;3.91;100.00
9474;BME280;8865;47.636;7.692;2023-04-10T04:41:19;98697.28;;;3.93;100.00
9474;BME280;8865;47.636;7.692;2023-04-10T04:43:46;98696.53;;;3.91;100.00
9474;BME280;8865;47.636;7.692;2023-04-10T04:46:16;98700.81;;;3.92;100.00
9474;BME280;8865;47.636;7.692;2023-04-10T04:48:42;98702.94;;;3.84;100.00
9474;BME280;8865;47.636;7.692;2023-04-10T04:51:07;98697.09;;;3.80;100.00
9474;BME280;8865;47.636;7.692;2023-04-10T04:53:33;98698.72;;;3.83;100.00
9474;BME280;8865;47.636;7.692;2023-04-10T04:55:59;98693.75;;;3.78;100.00
9474;BME280;8865;47.636;7.692;2023-04-10T04:58:25;98702.03;;;3.85;100.00
9474;BME280;8865;47.636;7.692;2023-04-10T05:00:51;98691.84;;;3.82;100.00
9474;BME280;8865;47.636;7.692;2023-04-10T05:03:17;98695.41;;;3.79;100.00
9474;BME280;8865;47.636;7.692;2023-04-10T05:05:43;98697.09;;;3.80;100.00
9474;BME280;8865;47.636;7.692;2023-04-10T05:08:10;98703.88;;;3.83;100.00
9474;BME280;8865;47.636;7.692;2023-04-10T05:10:36;98699.69;;;3.80;100.00
9474;BME280;8865;47.636;7.692;2023-04-10T05:13:02;98700.50;;;3.81;100.00
9474;BME280;8865;47.636;7.692;2023-04-10T05:15:28;98705.63;;;3.82;100.00
9474;BME280;8865;47.636;7.692;2023-04-10T05:17:54;98706.09;;;3.90;100.00
9474;BME280;8865;47.636;7.692;2023-04-10T05:20:20;98704.25;;;3.92;100.00
9474;BME280;8865;47.636;7.692;2023-04-10T05:22:47;98706.09;;;3.90;100.00
9474;BME280;8865;47.636;7.692;2023-04-10T05:25:13;98704.25;;;3.92;100.00
9474;BME280;8865;47.636;7.692;2023-04-10T05:27:39;98694.03;;;3.89;100.00
9474;BME280;8865;47.636;7.692;2023-04-10T05:30:05;98705.06;;;3.93;100.00
9474;BME280;8865;47.636;7.692;2023-04-10T05:32:32;98707.72;;;4.09;100.00
9474;BME280;8865;47.636;7.692;2023-04-10T05:34:58;98705.88;;;4.11;100.00
9474;BME280;8865;47.636;7.692;2023-04-10T05:37:24;98700.53;;;4.14;100.00
9474;BME280;8865;47.636;7.692;2023-04-10T05:39:50;98703.56;;;4.22;100.00
9474;BME280;8865;47.636;7.692;2023-04-10T05:42:16;98707.56;;;4.28;100.00
9474;BME280;8865;47.636;7.692;2023-04-10T05:44:43;98697.56;;;4.38;100.00
9474;BME280;8865;47.636;7.692;2023-04-10T05:47:09;98706.34;;;4.35;100.00
9474;BME280;8865;47.636;7.692;2023-04-10T05:49:35;98705.94;;;4.43;100.00
9474;BME280;8865;47.636;7.692;2023-04-10T05:52:01;98705.69;;;4.47;100.00
9474;BME280;8865;47.636;7.692;2023-04-10T05:54:27;98711.59;;;4.50;100.00
9474;BME280;8865;47.636;7.692;2023-04-10T05:56:56;98711.44;;;4.53;100.00
9474;BME280;8865;47.636;7.692;2023-04-10T05:59:26;98706.63;;;4.62;100.00
9474;BME280;8865;47.636;7.692;2023-04-10T06:01:52;98707.94;;;4.70;100.00
9474;BME280;8865;47.636;7.692;2023-04-10T06:04:24;98709.28;;;4.77;100.00
9474;BME280;8865;47.636;7.692;2023-04-10T06:06:50;98711.44;;;4.85;100.00
9474;BME280;8865;47.636;7.692;2023-04-10T06:09:22;98710.94;;;4.94;100.00
9474;BME280;8865;47.636;7.692;2023-04-10T06:11:51;98714.19;;;4.97;100.00
9474;BME280;8865;47.636;7.692;2023-04-10T06:14:27;98713.75;;;5.05;100.00
9474;BME280;8865;47.636;7.692;2023-04-10T06:16:53;98715.94;;;5.13;100.00
9474;BME280;8865;47.636;7.692;2023-04-10T06:19:42;98716.72;;;5.29;100.00
9474;BME280;8865;47.636;7.692;2023-04-10T06:22:18;98711.78;;;5.41;100.00
9474;BME280;8865;47.636;7.692;2023-04-10T06:24:50;98719.03;;;5.50;100.00
9474;BME280;8865;47.636;7.692;2023-04-10T06:27:22;98716.47;;;5.64;100.00
9474;BME280;8865;47.636;7.692;2023-04-10T06:29:54;98715.56;;;5.80;100.00
9474;BME280;8865;47.636;7.692;2023-04-10T06:32:23;98712.41;;;5.89;100.00
9474;BME280;8865;47.636;7.692;2023-04-10T06:34:59;98711.53;;;6.04;100.00
9474;BME280;8865;47.636;7.692;2023-04-10T06:37:32;98706.03;;;6.23;100.00
9474;BME280;8865;47.636;7.692;2023-04-10T06:40:25;98710.59;;;6.34;100.00
9474;BME280;8865;47.636;7.692;2023-04-10T06:43:09;98700.09;;;6.50;100.00
9474;BME280;8865;47.636;7.692;2023-04-10T06:46:02;98705.25;;;6.65;100.00
9474;BME280;8865;47.636;7.692;2023-04-10T06:48:31;98705.53;;;6.74;100.00
9474;BME280;8865;47.636;7.692;2023-04-10T06:50:57;98713.91;;;6.92;100.00
9474;BME280;8865;47.636;7.692;2023-04-10T06:53:27;98710.09;;;6.98;100.00
9474;BME280;8865;47.636;7.692;2023-04-10T06:55:58;98702.88;;;7.16;100.00
9474;BME280;8865;47.636;7.692;2023-04-10T07:01:48;98694.81;;;7.59;100.00
9474;BME280;8865;47.636;7.692;2023-04-10T07:04:22;98697.22;;;7.75;100.00
9474;BME280;8865;47.636;7.692;2023-04-10T07:10:07;98701.22;;;8.07;100.00
9474;BME280;8865;47.636;7.692;2023-04-10T07:12:45;98696.88;;;8.18;100.00
9474;BME280;8865;47.636;7.692;2023-04-10T07:15:14;98689.16;;;8.30;100.00
9474;BME280;8865;47.636;7.692;2023-04-10T07:18:19;98698.47;;;8.47;100.00
9474;BME280;8865;47.636;7.692;2023-04-10T07:20:49;98695.91;;;8.58;100.00
9474;BME280;8865;47.636;7.692;2023-04-10T07:23:21;98686.97;;;8.73;100.00
9474;BME280;8865;47.636;7.692;2023-04-10T07:25:47;98683.72;;;8.83;100.00
9474;BME280;8865;47.636;7.692;2023-04-10T07:28:22;98695.06;;;8.94;100.00
9474;BME280;8865;47.636;7.692;2023-04-10T07:30:51;98690.28;;;9.13;100.00
9474;BME280;8865;47.636;7.692;2023-04-10T07:33:21;98684.50;;;9.20;100.00
9474;BME280;8865;47.636;7.692;2023-04-10T07:35:53;98683.13;;;9.39;100.00
9474;BME280;8865;47.636;7.692;2023-04-10T07:38:46;98685.78;;;9.50;100.00
9474;BME280;8865;47.636;7.692;2023-04-10T07:41:12;98686.41;;;9.65;100.00
9474;BME280;8865;47.636;7.692;2023-04-10T07:43:55;98680.94;;;9.79;100.00
9474;BME280;8865;47.636;7.692;2023-04-10T07:46:45;98687.63;;;9.83;100.00
9474;BME280;8865;47.636;7.692;2023-04-10T07:49:24;98680.13;;;9.79;100.00
9474;BME280;8865;47.636;7.692;2023-04-10T07:55:35;98683.25;;;10.07;100.00
9474;BME280;8865;47.636;7.692;2023-04-10T07:58:22;98678.00;;;10.29;100.00
9474;BME280;8865;47.636;7.692;2023-04-10T08:01:23;98677.19;;;10.51;100.00
9474;BME280;8865;47.636;7.692;2023-04-10T08:03:52;98675.13;;;10.66;100.00
9474;BME280;8865;47.636;7.692;2023-04-10T08:09:52;98663.81;;;11.10;100.00
9474;BME280;8865;47.636;7.692;2023-04-10T08:12:24;98672.84;;;11.17;100.00
9474;BME280;8865;47.636;7.692;2023-04-10T08:14:59;98671.34;;;11.24;100.00
9474;BME280;8865;47.636;7.692;2023-04-10T08:17:40;98674.63;;;11.37;100.00
9474;BME280;8865;47.636;7.692;2023-04-10T08:28:19;98674.16;;;12.17;98.03
9474;BME280;8865;47.636;7.692;2023-04-10T08:30:54;98673.00;;;12.40;93.90
9474;BME280;8865;47.636;7.692;2023-04-10T08:33:58;98665.94;;;12.41;89.01
9474;BME280;8865;47.636;7.692;2023-04-10T08:36:45;98663.22;;;12.52;89.12
9474;BME280;8865;47.636;7.692;2023-04-10T08:39:13;98659.81;;;12.81;89.61
9474;BME280;8865;47.636;7.692;2023-04-10T08:41:53;98658.03;;;13.01;85.70
9474;BME280;8865;47.636;7.692;2023-04-10T08:44:31;98661.75;;;13.28;80.59
9474;BME280;8865;47.636;7.692;2023-04-10T08:47:09;98654.84;;;13.46;80.30
9474;BME280;8865;47.636;7.692;2023-04-10T08:50:00;98662.97;;;13.72;76.26
9474;BME280;8865;47.636;7.692;2023-04-10T08:52:33;98657.03;;;14.08;81.23
9474;BME280;8865;47.636;7.692;2023-04-10T08:55:09;98658.63;;;14.28;73.57
9474;BME280;8865;47.636;7.692;2023-04-10T08:57:46;98660.69;;;14.53;72.96
9474;BME280;8865;47.636;7.692;2023-04-10T09:00:25;98656.63;;;14.86;68.79
9474;BME280;8865;47.636;7.692;2023-04-10T09:02:51;98657.56;;;14.95;67.13
9474;BME280;8865;47.636;7.692;2023-04-10T09:05:29;98659.66;;;15.27;71.80
9474;BME280;8865;47.636;7.692;2023-04-10T09:08:13;98648.63;;;16.02;66.35
9474;BME280;8865;47.636;7.692;2023-04-10T09:10:55;98645.44;;;16.25;62.30
9474;BME280;8865;47.636;7.692;2023-04-10T09:24:23;98639.34;;;16.33;56.77
9474;BME280;8865;47.636;7.692;2023-04-10T09:26:52;98635.44;;;16.53;59.21
9474;BME280;8865;47.636;7.692;2023-04-10T09:29:26;98633.72;;;16.95;56.00
9474;BME280;8865;47.636;7.692;2023-04-10T09:32:08;98631.75;;;16.89;54.86
9474;BME280;8865;47.636;7.692;2023-04-10T09:34:53;98620.78;;;16.84;54.95
9474;BME280;8865;47.636;7.692;2023-04-10T09:37:34;98621.16;;;17.30;54.66
9474;BME280;8865;47.636;7.692;2023-04-10T09:40:25;98619.38;;;18.11;51.92
9474;BME280;8865;47.636;7.692;2023-04-10T09:43:20;98622.97;;;18.89;49.08
9474;BME280;8865;47.636;7.692;2023-04-10T09:46:01;98621.22;;;19.58;48.77
9474;BME280;8865;47.636;7.692;2023-04-10T09:48:31;98621.81;;;19.98;46.60
9474;BME280;8865;47.636;7.692;2023-04-10T09:51:01;98601.13;;;20.81;46.00
9474;BME280;8865;47.636;7.692;2023-04-10T09:54:01;98605.47;;;21.54;42.35
9474;BME280;8865;47.636;7.692;2023-04-10T09:56:37;98596.59;;;22.78;38.94
9474;BME280;8865;47.636;7.692;2023-04-10T09:59:09;98591.53;;;24.22;36.74
9474;BME280;8865;47.636;7.692;2023-04-10T10:01:41;98595.47;;;24.65;34.42
9474;BME280;8865;47.636;7.692;2023-04-10T10:04:13;98579.34;;;25.54;33.26
9474;BME280;8865;47.636;7.692;2023-04-10T10:06:45;98572.00;;;26.54;30.96
9474;BME280;8865;47.636;7.692;2023-04-10T10:09:14;98565.31;;;28.17;31.00
9474;BME280;8865;47.636;7.692;2023-04-10T10:11:55;98564.94;;;29.34;27.17
9474;BME280;8865;47.636;7.692;2023-04-10T10:14:30;98561.41;;;30.61;27.65
9474;BME280;8865;47.636;7.692;2023-04-10T10:17:04;98557.94;;;31.36;24.38
9474;BME280;8865;47.636;7.692;2023-04-10T10:23:24;98543.13;;;31.96;23.32
9474;BME280;8865;47.636;7.692;2023-04-10T10:29:55;98541.09;;;32.45;21.93
9474;BME280;8865;47.636;7.692;2023-04-10T10:32:24;98542.78;;;31.82;23.80
9474;BME280;8865;47.636;7.692;2023-04-10T10:34:55;98536.22;;;30.93;22.51
9474;BME280;8865;47.636;7.692;2023-04-10T10:37:29;98536.31;;;30.98;22.88
9474;BME280;8865;47.636;7.692;2023-04-10T10:40:27;98536.31;;;31.41;22.77
9474;BME280;8865;47.636;7.692;2023-04-10T10:52:59;98530.00;;;30.33;22.81
9474;BME280;8865;47.636;7.692;2023-04-10T10:55:41;98529.72;;;29.46;23.88
9474;BME280;8865;47.636;7.692;2023-04-10T10:59:09;98524.91;;;29.48;23.04
9474;BME280;8865;47.636;7.692;2023-04-10T11:04:52;98528.66;;;28.45;23.95
9474;BME280;8865;47.636;7.692;2023-04-10T11:11:20;98516.22;;;29.46;23.19
9474;BME280;8865;47.636;7.692;2023-04-10T11:16:41;98506.28;;;29.46;23.70
9474;BME280;8865;47.636;7.692;2023-04-10T11:19:15;98502.69;;;29.41;24.21
9474;BME280;8865;47.636;7.692;2023-04-10T11:22:01;98501.69;;;29.86;24.89
9474;BME280;8865;47.636;7.692;2023-04-10T11:25:01;98504.78;;;29.55;22.75
9474;BME280;8865;47.636;7.692;2023-04-10T11:27:46;98511.97;;;29.28;23.37
9474;BME280;8865;47.636;7.692;2023-04-10T11:30:32;98501.47;;;29.70;24.03
9474;BME280;8865;47.636;7.692;2023-04-10T11:33:03;98500.81;;;30.35;23.36
9474;BME280;8865;47.636;7.692;2023-04-10T11:35:33;98493.88;;;31.04;23.67
9474;BME280;8865;47.636;7.692;2023-04-10T11:38:16;98498.50;;;31.56;22.75
9474;BME280;8865;47.636;7.692;2023-04-10T11:41:02;98498.53;;;32.50;21.01
9474;BME280;8865;47.636;7.692;2023-04-10T11:43:44;98474.66;;;33.95;20.17
9474;BME280;8865;47.636;7.692;2023-04-10T11:46:10;98476.97;;;35.15;19.07
9474;BME280;8865;47.636;7.692;2023-04-10T11:48:45;98476.84;;;36.17;17.84
9474;BME280;8865;47.636;7.692;2023-04-10T11:51:13;98481.91;;;36.24;16.77
9474;BME280;8865;47.636;7.692;2023-04-10T11:56:28;98469.28;;;37.41;15.48
9474;BME280;8865;47.636;7.692;2023-04-10T11:59:17;98475.19;;;36.87;16.35
9474;BME280;8865;47.636;7.692;2023-04-10T12:02:14;98477.28;;;35.86;16.98
9474;BME280;8865;47.636;7.692;2023-04-10T12:04:42;98471.25;;;35.89;18.17
9474;BME280;8865;47.636;7.692;2023-04-10T12:07:11;98462.69;;;35.96;16.49
9474;BME280;8865;47.636;7.692;2023-04-10T12:09:43;98457.72;;;35.36;18.06
9474;BME280;8865;47.636;7.692;2023-04-10T12:23:43;98434.91;;;35.94;18.29
9474;BME280;8865;47.636;7.692;2023-04-10T12:26:12;98430.63;;;36.26;17.62
9474;BME280;8865;47.636;7.692;2023-04-10T12:28:49;98421.63;;;35.87;16.72
9474;BME280;8865;47.636;7.692;2023-04-10T12:31:18;98427.38;;;35.67;17.46
9474;BME280;8865;47.636;7.692;2023-04-10T12:33:52;98419.56;;;34.18;18.23
9474;BME280;8865;47.636;7.692;2023-04-10T12:36:24;98414.38;;;33.22;19.12
9474;BME280;8865;47.636;7.692;2023-04-10T12:39:00;98416.66;;;32.28;20.16
9474;BME280;8865;47.636;7.692;2023-04-10T12:41:28;98416.75;;;31.59;21.07
9474;BME280;8865;47.636;7.692;2023-04-10T12:44:11;98410.56;;;31.06;21.07
9474;BME280;8865;47.636;7.692;2023-04-10T12:46:39;98409.44;;;30.59;21.37
9474;BME280;8865;47.636;7.692;2023-04-10T12:49:13;98409.84;;;30.45;22.57
9474;BME280;8865;47.636;7.692;2023-04-10T12:51:47;98410.19;;;30.22;23.16
9474;BME280;8865;47.636;7.692;2023-04-10T12:54:35;98411.38;;;30.36;21.96
9474;BME280;8865;47.636;7.692;2023-04-10T12:57:02;98411.84;;;30.28;21.61
9474;BME280;8865;47.636;7.692;2023-04-10T12:59:31;98418.63;;;30.58;21.31
9474;BME280;8865;47.636;7.692;2023-04-10T13:01:57;98415.00;;;31.27;22.70
9474;BME280;8865;47.636;7.692;2023-04-10T13:04:23;98407.06;;;31.79;20.00
9474;BME280;8865;47.636;7.692;2023-04-10T13:06:49;98399.56;;;32.43;21.01
9474;BME280;8865;47.636;7.692;2023-04-10T13:09:18;98387.25;;;33.12;19.34
9474;BME280;8865;47.636;7.692;2023-04-10T13:11:44;98388.31;;;33.81;19.33
9474;BME280;8865;47.636;7.692;2023-04-10T13:14:10;98389.84;;;33.43;19.34
9474;BME280;8865;47.636;7.692;2023-04-10T13:16:37;98390.06;;;32.50;18.98
9474;BME280;8865;47.636;7.692;2023-04-10T13:19:03;98391.09;;;31.87;20.06
9474;BME280;8865;47.636;7.692;2023-04-10T13:21:29;98383.22;;;30.59;20.59
9474;BME280;8865;47.636;7.692;2023-04-10T13:23:55;98385.63;;;29.96;21.37
9474;BME280;8865;47.636;7.692;2023-04-10T13:26:22;98373.63;;;29.32;21.82
9474;BME280;8865;47.636;7.692;2023-04-10T13:28:48;98375.16;;;29.06;22.99
9474;BME280;8865;47.636;7.692;2023-04-10T13:31:14;98377.75;;;28.79;23.70
9474;BME280;8865;47.636;7.692;2023-04-10T13:33:44;98375.47;;;28.54;25.57
9474;BME280;8865;47.636;7.692;2023-04-10T13:36:13;98380.53;;;28.33;24.49
9474;BME280;8865;47.636;7.692;2023-04-10T13:38:39;98375.06;;;28.11;24.20
9474;BME280;8865;47.636;7.692;2023-04-10T13:41:06;98365.53;;;27.91;24.41
9474;BME280;8865;47.636;7.692;2023-04-10T13:43:32;98367.22;;;26.99;25.59
9474;BME280;8865;47.636;7.692;2023-04-10T13:45:57;98363.28;;;26.78;27.90
9474;BME280;8865;47.636;7.692;2023-04-10T13:48:23;98363.66;;;26.70;26.68
9474;BME280;8865;47.636;7.692;2023-04-10T13:50:49;98359.41;;;26.38;27.18
9474;BME280;8865;47.636;7.692;2023-04-10T13:53:15;98355.88;;;26.26;27.94
9474;BME280;8865;47.636;7.692;2023-04-10T13:55:41;98354.88;;;25.97;27.58
9474;BME280;8865;47.636;7.692;2023-04-10T13:58:11;98350.47;;;25.60;28.28
9474;BME280;8865;47.636;7.692;2023-04-10T14:00:38;98354.91;;;25.36;28.36
9474;BME280;8865;47.636;7.692;2023-04-10T14:03:05;98357.16;;;25.14;28.42
9474;BME280;8865;47.636;7.692;2023-04-10T14:05:34;98350.19;;;24.76;30.26
9474;BME280;8865;47.636;7.692;2023-04-10T14:08:00;98341.41;;;24.69;29.15
9474;BME280;8865;47.636;7.692;2023-04-10T14:10:26;98345.81;;;24.56;29.97
9474;BME280;8865;47.636;7.692;2023-04-10T14:12:52;98350.69;;;24.41;29.74
9474;BME280;8865;47.636;7.692;2023-04-10T14:15:19;98348.81;;;24.41;29.51
9474;BME280;8865;47.636;7.692;2023-04-10T14:17:45;98343.56;;;24.53;31.14
9474;BME280;8865;47.636;7.692;2023-04-10T14:20:11;98352.06;;;24.50;31.15
9474;BME280;8865;47.636;7.692;2023-04-10T14:22:41;98353.47;;;24.28;30.85
9474;BME280;8865;47.636;7.692;2023-04-10T14:25:07;98342.66;;;24.41;30.78
9474;BME280;8865;47.636;7.692;2023-04-10T14:27:36;98343.31;;;24.62;32.77
9474;BME280;8865;47.636;7.692;2023-04-10T14:30:02;98341.06;;;24.58;32.68
9474;BME280;8865;47.636;7.692;2023-04-10T14:32:29;98337.19;;;24.54;31.95
9474;BME280;8865;47.636;7.692;2023-04-10T14:34:56;98343.22;;;24.24;31.13
9474;BME280;8865;47.636;7.692;2023-04-10T14:37:22;98339.09;;;23.97;31.67
9474;BME280;8865;47.636;7.692;2023-04-10T14:39:48;98340.09;;;24.02;33.05
9474;BME280;8865;47.636;7.692;2023-04-10T14:42:14;98341.00;;;23.51;32.84
9474;BME280;8865;47.636;7.692;2023-04-10T14:44:40;98342.56;;;23.27;32.37
9474;BME280;8865;47.636;7.692;2023-04-10T14:47:07;98353.03;;;23.28;32.78
9474;BME280;8865;47.636;7.692;2023-04-10T14:49:33;98342.19;;;23.10;32.90
9474;BME280;8865;47.636;7.692;2023-04-10T14:51:59;98343.78;;;22.45;33.21
9474;BME280;8865;47.636;7.692;2023-04-10T14:54:25;98343.94;;;22.57;33.94
9474;BME280;8865;47.636;7.692;2023-04-10T14:56:51;98338.22;;;22.40;34.43
9474;BME280;8865;47.636;7.692;2023-04-10T14:59:17;98340.22;;;22.11;34.37
9474;BME280;8865;47.636;7.692;2023-04-10T15:01:43;98336.53;;;21.99;34.69
9474;BME280;8865;47.636;7.692;2023-04-10T15:04:09;98323.00;;;22.01;34.32
9474;BME280;8865;47.636;7.692;2023-04-10T15:06:36;98330.41;;;21.92;35.56
9474;BME280;8865;47.636;7.692;2023-04-10T15:09:02;98315.00;;;21.87;36.26
9474;BME280;8865;47.636;7.692;2023-04-10T15:11:28;98298.34;;;21.52;35.56